sensor_id;sensor_type;location;lat;lon;timestamp;P1;durP1;ratioP1;P2;durP2;ratioP2
31974;SDS011;18500;43.618;1.474;2023-06-05T16:37:05;1648.53;;;999.90;;
31974;SDS011;18500;43.618;1.474;2023-06-05T16:39:31;1762.25;;;999.90;;
31974;SDS011;18500;43.618;1.474;2023-06-05T16:41:57;1675.10;;;999.90;;
31974;SDS011;18500;43.618;1.474;2023-06-05T16:44:26;1700.05;;;999.90;;
31974;SDS011;18500;43.618;1.474;2023-06-05T16:46:55;1680.38;;;999.90;;
31974;SDS011;18500;43.618;1.474;2023-06-05T16:49:21;1645.68;;;999.90;;
31974;SDS011;18500;43.618;1.474;2023-06-05T16:51:47;1402.15;;;999.90;;
31974;SDS011;18500;43.618;1.474;2023-06-05T16:54:12;1080.13;;;936.03;;
31974;SDS011;18500;43.618;1.474;2023-06-05T16:56:40;1308.15;;;996.55;;
31974;SDS011;18500;43.618;1.474;2023-06-05T16:59:12;1292.10;;;986.00;;
31974;SDS011;18500;43.618;1.474;2023-06-05T17:01:39;1467.80;;;999.90;;
31974;SDS011;18500;43.618;1.474;2023-06-05T17:04:06;968.95;;;870.80;;
31974;SDS011;18500;43.618;1.474;2023-06-05T17:06:32;1089.65;;;914.72;;
31974;SDS011;18500;43.618;1.474;2023-06-05T17:08:58;942.65;;;850.45;;
31974;SDS011;18500;43.618;1.474;2023-06-05T17:11:24;900.22;;;816.25;;
31974;SDS011;18500;43.618;1.474;2023-06-05T17:13:51;903.33;;;821.28;;
31974;SDS011;18500;43.618;1.474;2023-06-05T17:16:17;959.00;;;870.00;;
31974;SDS011;18500;43.618;1.474;2023-06-05T17:18:42;990.90;;;896.92;;
31974;SDS011;18500;43.618;1.474;2023-06-05T17:21:08;895.63;;;815.15;;
31974;SDS011;18500;43.618;1.474;2023-06-05T17:23:34;919.95;;;836.05;;
31974;SDS011;18500;43.618;1.474;2023-06-05T17:25:59;973.50;;;880.22;;
31974;SDS011;18500;43.618;1.474;2023-06-05T17:28:25;964.95;;;873.90;;
31974;SDS011;18500;43.618;1.474;2023-06-05T17:30:51;994.83;;;899.13;;
31974;SDS011;18500;43.618;1.474;2023-06-05T17:33:17;1064.63;;;954.95;;
31974;SDS011;18500;43.618;1.474;2023-06-05T17:35:44;1074.53;;;965.80;;
31974;SDS011;18500;43.618;1.474;2023-06-05T17:38:10;1102.40;;;981.42;;
31974;SDS011;18500;43.618;1.474;2023-06-05T17:40:36;1115.15;;;991.40;;
31974;SDS011;18500;43.618;1.474;2023-06-05T17:43:04;1056.07;;;951.75;;
31974;SDS011;18500;43.618;1.474;2023-06-05T17:45:30;1105.18;;;989.30;;
31974;SDS011;18500;43.618;1.474;2023-06-05T17:47:58;1110.05;;;989.65;;
31974;SDS011;18500;43.618;1.474;2023-06-05T17:50:27;1193.47;;;999.90;;
31974;SDS011;18500;43.618;1.474;2023-06-05T17:52:52;1106.53;;;995.00;;
31974;SDS011;18500;43.618;1.474;2023-06-05T17:55:18;1721.88;;;999.90;;
31974;SDS011;18500;43.618;1.474;2023-06-05T17:57:44;1104.35;;;993.92;;
31974;SDS011;18500;43.618;1.474;2023-06-05T18:00:16;1300.30;;;999.90;;
31974;SDS011;18500;43.618;1.474;2023-06-05T18:02:46;1789.10;;;999.90;;
31974;SDS011;18500;43.618;1.474;2023-06-05T18:05:12;1531.18;;;999.90;;
31974;SDS011;18500;43.618;1.474;2023-06-05T18:07:38;1665.28;;;999.90;;
31974;SDS011;18500;43.618;1.474;2023-06-05T18:10:03;1999.90;;;999.90;;
31974;SDS011;18500;43.618;1.474;2023-06-05T18:12:29;1812.57;;;999.90;;
31974;SDS011;18500;43.618;1.474;2023-06-05T18:14:55;1999.90;;;999.90;;
31974;SDS011;18500;43.618;1.474;2023-06-05T18:17:21;1999.90;;;999.90;;
31974;SDS011;18500;43.618;1.474;2023-06-05T18:19:51;1999.90;;;999.90;;
31974;SDS011;18500;43.618;1.474;2023-06-05T18:22:17;1999.90;;;999.90;;
31974;SDS011;18500;43.618;1.474;2023-06-05T18:24:43;1999.90;;;999.90;;
31974;SDS011;18500;43.618;1.474;2023-06-05T18:27:08;1999.90;;;999.90;;
31974;SDS011;18500;43.618;1.474;2023-06-05T18:29:34;1999.90;;;999.90;;
31974;SDS011;18500;43.618;1.474;2023-06-05T18:32:00;1999.90;;;999.90;;
31974;SDS011;18500;43.618;1.474;2023-06-05T18:34:26;1999.90;;;999.90;;
31974;SDS011;18500;43.618;1.474;2023-06-05T18:36:52;1999.90;;;999.90;;
31974;SDS011;18500;43.618;1.474;2023-06-05T18:39:19;903.53;;;816.65;;
31974;SDS011;18500;43.618;1.474;2023-06-05T18:41:46;992.88;;;902.42;;
31974;SDS011;18500;43.618;1.474;2023-06-05T18:44:11;984.55;;;899.80;;
31974;SDS011;18500;43.618;1.474;2023-06-05T18:46:38;895.78;;;825.63;;
31974;SDS011;18500;43.618;1.474;2023-06-05T18:49:03;840.38;;;778.53;;
31974;SDS011;18500;43.618;1.474;2023-06-05T18:51:29;814.50;;;755.60;;
31974;SDS011;18500;43.618;1.474;2023-06-05T18:53:55;909.92;;;836.85;;
31974;SDS011;18500;43.618;1.474;2023-06-05T18:56:20;914.72;;;843.75;;
31974;SDS011;18500;43.618;1.474;2023-06-05T18:58:47;922.55;;;848.63;;
31974;SDS011;18500;43.618;1.474;2023-06-05T19:01:13;918.25;;;840.88;;
31974;SDS011;18500;43.618;1.474;2023-06-05T19:03:39;862.42;;;795.08;;
31974;SDS011;18500;43.618;1.474;2023-06-05T19:06:05;825.58;;;759.40;;
31974;SDS011;18500;43.618;1.474;2023-06-05T19:08:31;880.88;;;812.28;;
31974;SDS011;18500;43.618;1.474;2023-06-05T19:10:56;852.63;;;786.47;;
31974;SDS011;18500;43.618;1.474;2023-06-05T19:13:22;798.40;;;739.05;;
31974;SDS011;18500;43.618;1.474;2023-06-05T19:15:48;791.88;;;732.45;;
31974;SDS011;18500;43.618;1.474;2023-06-05T19:18:13;779.85;;;722.38;;
31974;SDS011;18500;43.618;1.474;2023-06-05T19:20:40;738.40;;;684.40;;
31974;SDS011;18500;43.618;1.474;2023-06-05T19:23:06;718.95;;;667.78;;
31974;SDS011;18500;43.618;1.474;2023-06-05T19:25:31;733.08;;;680.80;;
31974;SDS011;18500;43.618;1.474;2023-06-05T19:27:58;700.95;;;651.75;;
31974;SDS011;18500;43.618;1.474;2023-06-05T19:30:24;641.40;;;596.78;;
31974;SDS011;18500;43.618;1.474;2023-06-05T19:32:50;597.33;;;558.22;;
31974;SDS011;18500;43.618;1.474;2023-06-05T19:35:15;588.80;;;550.45;;
31974;SDS011;18500;43.618;1.474;2023-06-05T19:37:42;591.08;;;552.30;;
31974;SDS011;18500;43.618;1.474;2023-06-05T19:40:08;660.30;;;615.38;;
31974;SDS011;18500;43.618;1.474;2023-06-05T19:42:34;636.17;;;593.50;;
31974;SDS011;18500;43.618;1.474;2023-06-05T19:45:00;664.55;;;620.22;;
31974;SDS011;18500;43.618;1.474;2023-06-05T19:47:26;677.05;;;631.10;;
31974;SDS011;18500;43.618;1.474;2023-06-05T19:49:51;643.85;;;600.40;;
31974;SDS011;18500;43.618;1.474;2023-06-05T19:52:17;628.28;;;587.60;;
31974;SDS011;18500;43.618;1.474;2023-06-05T19:54:43;660.17;;;616.22;;
31974;SDS011;18500;43.618;1.474;2023-06-05T19:57:09;643.17;;;601.13;;
31974;SDS011;18500;43.618;1.474;2023-06-05T19:59:34;622.38;;;581.75;;
31974;SDS011;18500;43.618;1.474;2023-06-05T20:02:01;588.20;;;550.97;;
31974;SDS011;18500;43.618;1.474;2023-06-05T20:04:27;580.60;;;543.63;;
31974;SDS011;18500;43.618;1.474;2023-06-05T20:06:53;668.85;;;623.88;;
31974;SDS011;18500;43.618;1.474;2023-06-05T20:09:18;610.28;;;571.17;;
31974;SDS011;18500;43.618;1.474;2023-06-05T20:11:44;593.38;;;555.17;;
31974;SDS011;18500;43.618;1.474;2023-06-05T20:14:10;596.58;;;558.88;;
31974;SDS011;18500;43.618;1.474;2023-06-05T20:16:35;594.83;;;555.70;;
31974;SDS011;18500;43.618;1.474;2023-06-05T20:19:01;597.30;;;559.05;;
31974;SDS011;18500;43.618;1.474;2023-06-05T20:21:27;636.97;;;594.90;;
31974;SDS011;18500;43.618;1.474;2023-06-05T20:23:52;627.40;;;586.20;;
31974;SDS011;18500;43.618;1.474;2023-06-05T20:26:20;608.20;;;568.45;;
31974;SDS011;18500;43.618;1.474;2023-06-05T20:28:47;606.28;;;567.33;;
31974;SDS011;18500;43.618;1.474;2023-06-05T20:31:13;607.80;;;569.53;;
31974;SDS011;18500;43.618;1.474;2023-06-05T20:33:39;602.67;;;563.88;;
31974;SDS011;18500;43.618;1.474;2023-06-05T20:36:05;578.42;;;542.42;;
31974;SDS011;18500;43.618;1.474;2023-06-05T20:38:34;575.17;;;539.13;;
31974;SDS011;18500;43.618;1.474;2023-06-05T20:41:04;570.55;;;535.10;;
31974;SDS011;18500;43.618;1.474;2023-06-05T20:43:31;584.90;;;547.90;;
31974;SDS011;18500;43.618;1.474;2023-06-05T20:45:59;592.58;;;555.65;;
31974;SDS011;18500;43.618;1.474;2023-06-05T20:48:26;589.33;;;552.05;;
31974;SDS011;18500;43.618;1.474;2023-06-05T20:50:56;613.75;;;574.63;;
31974;SDS011;18500;43.618;1.474;2023-06-05T20:53:22;639.05;;;597.35;;
31974;SDS011;18500;43.618;1.474;2023-06-05T20:55:48;646.22;;;604.35;;
31974;SDS011;18500;43.618;1.474;2023-06-05T20:58:14;610.70;;;571.47;;
31974;SDS011;18500;43.618;1.474;2023-06-05T21:00:43;622.78;;;582.60;;
31974;SDS011;18500;43.618;1.474;2023-06-05T21:03:09;584.88;;;547.78;;
31974;SDS011;18500;43.618;1.474;2023-06-05T21:05:35;587.90;;;549.90;;
31974;SDS011;18500;43.618;1.474;2023-06-05T21:08:01;591.78;;;554.10;;
31974;SDS011;18500;43.618;1.474;2023-06-05T21:10:29;623.47;;;583.13;;
31974;SDS011;18500;43.618;1.474;2023-06-05T21:12:55;601.67;;;562.95;;
31974;SDS011;18500;43.618;1.474;2023-06-05T21:15:20;641.70;;;599.60;;
31974;SDS011;18500;43.618;1.474;2023-06-05T21:17:46;630.28;;;589.53;;
31974;SDS011;18500;43.618;1.474;2023-06-05T21:20:12;610.08;;;570.53;;
31974;SDS011;18500;43.618;1.474;2023-06-05T21:22:38;589.38;;;552.10;;
